createdAt,value
2023-01-10T00:01:45.405Z,1.50
2023-01-10T00:04:15.219Z,1.90
2023-01-10T00:06:43.131Z,2.10
2023-01-10T00:09:11.536Z,1.70
2023-01-10T00:11:57.040Z,2.10
2023-01-10T00:14:25.163Z,1.83
2023-01-10T00:16:53.042Z,2.13
2023-01-10T00:19:22.330Z,2.23
2023-01-10T00:21:50.379Z,2.20
2023-01-10T00:24:19.940Z,1.67
2023-01-10T00:26:52.260Z,1.50
2023-01-10T00:29:20.508Z,1.70
2023-01-10T00:31:48.630Z,1.50
2023-01-10T00:34:16.745Z,1.87
2023-01-10T00:36:47.843Z,1.73
2023-01-10T00:39:16.019Z,1.83
2023-01-10T00:42:01.367Z,2.00
2023-01-10T00:44:29.465Z,1.43
2023-01-10T00:46:57.543Z,1.70
2023-01-10T00:49:25.413Z,1.80
2023-01-10T00:51:58.600Z,1.70
2023-01-10T00:54:27.149Z,1.50
2023-01-10T00:56:55.246Z,1.38
2023-01-10T00:59:23.408Z,1.40
2023-01-10T01:01:52.167Z,1.05
2023-01-10T01:04:20.237Z,1.20
2023-01-10T01:06:50.794Z,1.87
2023-01-10T01:09:20.118Z,1.40
2023-01-10T01:11:48.020Z,1.63
2023-01-10T01:14:16.082Z,1.73
2023-01-10T01:16:43.957Z,1.70
2023-01-10T01:19:12.530Z,1.73
2023-01-10T01:21:40.745Z,1.50
2023-01-10T01:24:09.961Z,1.60
2023-01-10T01:26:39.747Z,1.70
2023-01-10T01:29:07.674Z,1.50
2023-01-10T01:31:35.889Z,1.80
2023-01-10T01:34:03.839Z,1.30
2023-01-10T01:36:31.770Z,1.40
2023-01-10T01:38:59.865Z,1.50
2023-01-10T01:41:45.139Z,1.30
2023-01-10T01:44:17.975Z,1.33
2023-01-10T01:46:49.705Z,1.43
2023-01-10T01:49:25.021Z,1.27
2023-01-10T01:52:00.571Z,1.67
2023-01-10T01:54:30.692Z,1.50
2023-01-10T01:57:03.309Z,1.40
2023-01-10T01:59:37.249Z,1.20
2023-01-10T02:02:09.240Z,1.50
2023-01-10T02:04:42.591Z,1.30
2023-01-10T02:07:11.626Z,0.80
2023-01-10T10:51:00.648Z,1.37
2023-01-10T10:53:29.205Z,1.40
2023-01-10T10:55:58.013Z,1.50
2023-01-10T10:58:26.207Z,1.57
2023-01-10T11:00:54.766Z,2.10
2023-01-10T11:03:36.834Z,1.57
2023-01-10T11:06:08.472Z,1.37
2023-01-10T11:08:38.115Z,0.90
2023-01-10T11:11:16.907Z,1.30
2023-01-10T11:13:49.852Z,1.47
2023-01-10T11:16:30.069Z,1.33
2023-01-10T11:19:20.910Z,1.57
2023-01-10T11:21:53.612Z,1.67
2023-01-10T11:24:28.696Z,1.80
2023-01-10T11:26:58.471Z,1.50
2023-01-10T11:29:28.369Z,1.43
2023-01-10T11:31:58.252Z,1.73
2023-01-10T11:34:29.870Z,1.80
2023-01-10T11:37:02.361Z,2.10
2023-01-10T11:39:32.034Z,1.80
2023-01-10T11:42:29.904Z,1.40
2023-01-10T11:45:15.967Z,1.60
2023-01-10T11:47:47.421Z,1.07
2023-01-10T11:50:21.067Z,1.20
2023-01-10T11:52:52.169Z,1.20
2023-01-10T11:55:22.011Z,1.30
2023-01-10T11:57:59.731Z,1.67
2023-01-10T12:00:37.819Z,1.93
2023-01-10T12:03:18.053Z,1.77
2023-01-10T12:05:55.953Z,1.73
2023-01-10T12:08:32.062Z,2.90
2023-01-10T12:11:06.591Z,1.60
2023-01-10T12:13:46.848Z,1.30
2023-01-10T12:16:23.946Z,1.50
2023-01-10T12:18:53.789Z,1.90
2023-01-10T12:21:27.901Z,2.10
2023-01-10T12:24:02.013Z,2.43
2023-01-10T12:26:33.552Z,2.30
2023-01-10T12:29:08.623Z,1.50
2023-01-10T12:31:40.609Z,1.57
2023-01-10T12:34:15.767Z,2.07
2023-01-10T12:36:52.277Z,3.57
2023-01-10T12:39:24.529Z,1.97
2023-01-10T12:42:21.544Z,1.80
2023-01-10T12:44:54.431Z,1.50
2023-01-10T12:47:31.665Z,2.33
2023-01-10T12:50:04.167Z,1.63
2023-01-10T12:52:45.853Z,1.83
2023-01-10T12:55:17.471Z,1.10
2023-01-10T12:57:51.884Z,1.27
2023-01-10T13:00:25.346Z,1.17
2023-01-10T13:02:56.724Z,1.30
2023-01-10T13:05:27.257Z,1.40
2023-01-10T13:08:00.918Z,1.43
2023-01-10T13:10:31.668Z,0.90
2023-01-10T13:13:04.107Z,1.50
2023-01-10T13:15:36.276Z,1.40
2023-01-10T13:18:07.244Z,1.27
2023-01-10T13:20:41.428Z,1.50
2023-01-10T13:23:30.322Z,0.90
2023-01-10T13:26:05.977Z,0.93
2023-01-10T13:28:35.785Z,2.07
2023-01-10T13:31:07.285Z,1.80
2023-01-10T13:33:41.472Z,1.80
2023-01-10T13:36:12.533Z,1.77
2023-01-10T13:38:51.154Z,1.10
2023-01-10T13:41:38.845Z,1.80
2023-01-10T13:44:10.547Z,1.15
2023-01-10T13:46:41.779Z,1.30
2023-01-10T13:49:47.598Z,1.60
2023-01-10T13:52:40.109Z,1.52
2023-01-10T13:55:54.686Z,1.90
2023-01-10T13:59:01.778Z,1.63
2023-01-10T14:01:55.841Z,1.73
2023-01-10T14:04:26.739Z,2.40
2023-01-10T14:06:57.267Z,1.30
2023-01-10T14:09:46.173Z,1.33
2023-01-10T14:12:24.722Z,1.23
2023-01-10T14:14:58.475Z,2.03
2023-01-10T14:17:28.984Z,2.40
2023-01-10T14:20:06.028Z,1.37
2023-01-10T14:22:37.012Z,1.50
2023-01-10T14:25:09.273Z,1.67
2023-01-10T14:27:45.531Z,2.00
2023-01-10T14:30:21.851Z,1.80
2023-01-10T14:32:53.111Z,1.80
2023-01-10T14:35:24.823Z,1.50
2023-01-10T14:37:55.967Z,1.60
2023-01-10T14:40:30.093Z,1.93
2023-01-10T14:43:02.831Z,1.40
2023-01-10T14:45:37.542Z,2.17
2023-01-10T14:48:28.184Z,1.27
2023-01-10T14:51:17.254Z,1.80
2023-01-10T14:53:46.241Z,1.50
2023-01-10T14:56:22.039Z,2.30
2023-01-10T14:58:50.161Z,1.70
2023-01-10T15:01:24.655Z,2.00
2023-01-10T15:03:53.570Z,1.00
2023-01-10T15:06:21.940Z,2.27
2023-01-10T15:09:00.816Z,2.27
2023-01-10T15:11:31.392Z,1.90
2023-01-10T15:14:04.657Z,2.47
2023-01-10T15:16:35.055Z,2.90
2023-01-10T15:19:03.739Z,2.17
2023-01-10T15:21:32.036Z,2.10
2023-01-10T15:24:00.045Z,2.57
2023-01-10T15:26:33.442Z,2.70
2023-01-10T15:29:08.313Z,2.17
2023-01-10T15:31:39.097Z,1.63
2023-01-10T15:34:12.436Z,2.13
2023-01-10T15:36:45.350Z,2.53
2023-01-10T15:39:20.948Z,2.10
2023-01-10T15:41:50.107Z,1.93
2023-01-10T15:44:34.331Z,1.40
2023-01-10T15:47:03.723Z,2.50
2023-01-10T15:49:31.899Z,1.73
2023-01-10T15:52:00.241Z,1.40
2023-01-10T15:54:34.172Z,1.60
2023-01-10T15:57:08.181Z,1.80
2023-01-10T15:59:39.722Z,2.00
2023-01-10T16:02:23.889Z,1.63
2023-01-10T16:04:54.740Z,1.73
2023-01-10T16:07:27.586Z,2.60
2023-01-10T16:09:59.232Z,1.90
2023-01-10T16:12:47.430Z,2.50
2023-01-10T16:15:20.641Z,2.53
2023-01-10T16:17:51.480Z,2.20
2023-01-10T16:20:20.958Z,2.42
2023-01-10T16:22:50.551Z,2.40
2023-01-10T16:25:20.521Z,2.00
2023-01-10T16:27:48.983Z,2.30
2023-01-10T16:30:24.272Z,2.50
2023-01-10T16:32:53.975Z,2.00
2023-01-10T16:35:22.424Z,2.13
2023-01-10T16:37:55.040Z,2.00
2023-01-10T16:40:27.494Z,2.30
2023-01-10T16:43:13.989Z,2.13
2023-01-10T16:45:42.241Z,2.80
2023-01-10T16:48:12.313Z,3.93
2023-01-10T16:50:40.388Z,2.57
2023-01-10T16:53:08.840Z,2.23
2023-01-10T16:55:42.279Z,2.80
2023-01-10T16:58:11.318Z,3.00
2023-01-10T17:00:39.895Z,2.00
2023-01-10T17:03:10.584Z,2.60
2023-01-10T17:05:40.568Z,2.03
2023-01-10T17:08:12.005Z,3.00
2023-01-10T17:10:39.947Z,3.07
2023-01-10T17:13:08.779Z,3.23
2023-01-10T17:15:37.686Z,2.30
2023-01-10T17:18:05.840Z,2.63
2023-01-10T17:20:33.955Z,3.27
2023-01-10T17:23:03.387Z,4.10
2023-01-10T17:25:31.286Z,4.40
2023-01-10T17:27:59.347Z,3.03
2023-01-10T17:30:27.622Z,3.73
2023-01-10T17:32:55.557Z,4.60
2023-01-10T17:35:27.409Z,3.80
2023-01-10T17:37:57.067Z,3.50
2023-01-10T17:40:26.486Z,3.20
2023-01-10T17:42:54.385Z,2.90
2023-01-10T17:45:22.627Z,3.50
2023-01-10T17:47:52.702Z,3.87
2023-01-10T17:50:20.675Z,4.20
2023-01-10T17:52:48.726Z,3.47
2023-01-10T17:55:16.870Z,3.33
2023-01-10T17:57:46.133Z,3.57
2023-01-10T18:00:15.322Z,2.90
2023-01-10T18:02:43.560Z,3.47
2023-01-10T18:05:11.828Z,3.20
2023-01-10T18:07:39.930Z,3.23
2023-01-10T18:10:09.208Z,2.90
2023-01-10T18:12:37.810Z,2.87
2023-01-10T18:15:08.390Z,3.60
2023-01-10T18:17:36.603Z,3.00
2023-01-10T18:20:04.990Z,2.40
2023-01-10T18:22:50.473Z,3.70
2023-01-10T18:25:19.397Z,2.78
2023-01-10T18:27:50.378Z,2.40
2023-01-10T18:30:22.205Z,2.33
2023-01-10T18:32:50.360Z,3.33
2023-01-10T18:35:18.505Z,2.70
2023-01-10T18:37:46.915Z,2.63
2023-01-10T18:40:15.817Z,2.50
2023-01-10T18:42:44.332Z,3.37
2023-01-10T18:45:12.605Z,2.67
2023-01-10T18:47:42.061Z,2.93
2023-01-10T18:50:11.099Z,2.93
2023-01-10T18:52:39.191Z,2.80
2023-01-10T18:55:08.949Z,3.27
2023-01-10T18:57:36.911Z,3.10
2023-01-10T19:00:05.663Z,3.37
2023-01-10T19:02:33.996Z,2.92
2023-01-10T19:05:05.078Z,3.40
2023-01-10T19:07:33.085Z,3.63
2023-01-10T19:10:01.229Z,3.57
2023-01-10T19:12:29.522Z,3.50
2023-01-10T19:14:57.620Z,4.43
2023-01-10T19:17:26.087Z,3.72
2023-01-10T19:19:55.515Z,3.33
2023-01-10T19:22:24.891Z,3.50
2023-01-10T19:24:52.947Z,3.43
2023-01-10T19:27:20.870Z,3.10
2023-01-10T19:29:50.228Z,3.60
2023-01-10T19:32:18.123Z,3.57
2023-01-10T19:34:46.483Z,3.53
2023-01-10T19:37:14.749Z,4.13
2023-01-10T19:39:44.106Z,3.43
2023-01-10T19:42:12.366Z,4.47
2023-01-10T19:44:40.265Z,3.53
2023-01-10T19:47:08.434Z,3.70
2023-01-10T19:49:37.023Z,2.70
2023-01-10T19:52:05.626Z,3.47
2023-01-10T19:54:33.866Z,3.38
2023-01-10T19:57:03.396Z,3.47
2023-01-10T19:59:32.570Z,3.27
2023-01-10T20:02:01.327Z,2.90
2023-01-10T20:04:29.260Z,3.27
2023-01-10T20:06:57.684Z,2.80
2023-01-10T20:09:25.687Z,3.07
2023-01-10T20:11:53.755Z,3.00
2023-01-10T20:14:24.902Z,2.97
2023-01-10T20:16:53.433Z,3.50
2023-01-10T20:19:22.089Z,3.37
2023-01-10T20:21:50.495Z,3.20
2023-01-10T20:24:21.015Z,2.60
2023-01-10T20:26:50.972Z,3.50
2023-01-10T20:29:20.482Z,3.03
2023-01-10T20:31:53.040Z,2.70
2023-01-10T20:34:22.794Z,2.77
2023-01-10T20:36:52.832Z,2.77
2023-01-10T20:39:20.793Z,2.77
2023-01-10T20:41:48.924Z,2.45
2023-01-10T20:44:17.395Z,2.33
2023-01-10T20:46:45.359Z,2.40
2023-01-10T20:49:14.703Z,3.30
2023-01-10T20:51:43.237Z,2.87
2023-01-10T20:54:11.271Z,3.17
2023-01-10T20:56:39.928Z,2.80
2023-01-10T20:59:08.437Z,3.73
2023-01-10T21:01:36.615Z,3.00
2023-01-10T21:04:06.815Z,2.30
2023-01-10T21:06:37.132Z,3.10
2023-01-10T21:09:06.026Z,2.77
2023-01-10T21:11:44.314Z,2.83
2023-01-10T21:14:22.347Z,3.23
2023-01-10T21:16:50.475Z,2.57
2023-01-10T21:19:21.205Z,2.50
2023-01-10T21:21:50.585Z,3.60
2023-01-10T21:24:22.986Z,3.10
2023-01-10T21:26:50.921Z,3.50
2023-01-10T21:29:19.225Z,2.50
2023-01-10T21:31:47.405Z,2.20
2023-01-10T21:34:15.617Z,2.57
2023-01-10T21:36:43.994Z,2.00
2023-01-10T21:39:13.259Z,2.53
2023-01-10T21:41:58.979Z,2.70
2023-01-10T21:44:26.942Z,2.37
2023-01-10T21:46:54.968Z,1.70
2023-01-10T21:49:23.344Z,3.33
2023-01-10T21:51:51.323Z,2.10
2023-01-10T21:54:20.815Z,1.90
2023-01-10T21:56:48.778Z,2.33
2023-01-10T21:59:17.758Z,2.80
2023-01-10T22:01:45.868Z,2.33
2023-01-10T22:04:16.311Z,2.10
2023-01-10T22:06:45.300Z,2.30
2023-01-10T22:09:13.254Z,1.83
2023-01-10T22:11:42.983Z,2.13
2023-01-10T22:14:13.120Z,2.30
2023-01-10T22:16:41.034Z,2.03
2023-01-10T22:19:09.416Z,2.10
2023-01-10T22:21:37.274Z,2.50
2023-01-10T22:24:06.024Z,2.27
2023-01-10T22:26:33.916Z,2.03
2023-01-10T22:29:03.598Z,2.90
2023-01-10T22:31:31.608Z,2.00
2023-01-10T22:33:59.575Z,2.20
2023-01-10T22:36:27.767Z,2.47
2023-01-10T22:38:55.674Z,2.50
2023-01-10T22:41:26.814Z,2.13
2023-01-10T22:43:55.396Z,2.67
2023-01-10T22:46:24.757Z,2.50
2023-01-10T22:48:53.534Z,1.90
2023-01-10T22:51:22.791Z,1.97
2023-01-10T22:53:51.608Z,1.87
2023-01-10T22:56:19.769Z,2.00
2023-01-10T22:58:48.728Z,2.20
2023-01-10T23:01:18.441Z,2.37
2023-01-10T23:03:48.410Z,2.03
2023-01-10T23:06:16.662Z,1.80
2023-01-10T23:08:45.710Z,1.93
2023-01-10T23:11:16.650Z,2.10
2023-01-10T23:13:45.148Z,1.50
2023-01-10T23:16:15.663Z,2.17
2023-01-10T23:18:44.341Z,1.93
2023-01-10T23:21:14.329Z,1.08
2023-01-10T23:23:42.278Z,1.47
2023-01-10T23:26:13.229Z,2.13
2023-01-10T23:28:44.882Z,1.40
2023-01-10T23:31:13.111Z,1.77
2023-01-10T23:33:41.261Z,1.63
2023-01-10T23:36:10.086Z,1.40
2023-01-10T23:38:39.440Z,1.30
2023-01-10T23:41:07.912Z,2.20
2023-01-10T23:43:35.889Z,1.80
2023-01-10T23:46:04.016Z,1.30
2023-01-10T23:48:32.004Z,1.80
2023-01-10T23:51:00.115Z,1.10
2023-01-10T23:53:28.715Z,1.63
2023-01-10T23:55:58.250Z,1.70
2023-01-10T23:58:26.278Z,1.33
